createdAt,value
2018-08-13T00:02:11.107Z,48.90
2018-08-13T00:04:39.515Z,48.60
2018-08-13T00:07:07.156Z,48.90
2018-08-13T00:09:40.790Z,48.70
2018-08-13T00:12:08.947Z,49.20
2018-08-13T00:14:36.922Z,49.20
2018-08-13T00:17:04.515Z,49.20
2018-08-13T00:19:32.137Z,49.30
2018-08-13T00:21:59.756Z,49.60
2018-08-13T00:24:27.371Z,49.40
2018-08-13T00:26:55.174Z,49.80
2018-08-13T00:29:22.853Z,49.50
2018-08-13T00:31:50.430Z,49.70
2018-08-13T00:34:18.190Z,49.60
2018-08-13T00:36:45.873Z,49.80
2018-08-13T00:39:13.539Z,50.00
2018-08-13T00:41:41.243Z,49.70
2018-08-13T00:44:08.902Z,49.90
2018-08-13T00:46:36.520Z,50.20
2018-08-13T00:49:05.048Z,50.20
2018-08-13T00:51:33.577Z,50.30
2018-08-13T00:54:01.145Z,50.10
2018-08-13T00:56:28.803Z,50.70
2018-08-13T00:58:56.498Z,50.50
2018-08-13T01:01:24.423Z,50.80
2018-08-13T01:03:52.168Z,51.00
2018-08-13T01:06:19.972Z,51.00
2018-08-13T01:08:47.827Z,51.40
2018-08-13T01:11:15.390Z,51.40
2018-08-13T01:13:42.968Z,51.70
2018-08-13T01:16:10.564Z,51.60
2018-08-13T01:18:38.140Z,51.60
2018-08-13T01:21:05.963Z,51.50
2018-08-13T01:23:33.571Z,51.60
2018-08-13T01:26:01.138Z,51.70
2018-08-13T01:28:28.856Z,51.70
2018-08-13T01:30:56.495Z,51.80
2018-08-13T01:33:24.468Z,51.80
2018-08-13T01:35:52.047Z,51.80
2018-08-13T01:38:19.608Z,52.10
2018-08-13T01:40:47.247Z,51.80
2018-08-13T01:43:15.271Z,51.90
2018-08-13T01:45:43.248Z,52.00
2018-08-13T01:48:10.824Z,52.10
2018-08-13T01:50:38.676Z,52.20
2018-08-13T01:53:09.121Z,52.60
2018-08-13T01:55:36.753Z,52.80
2018-08-13T01:58:04.445Z,52.70
2018-08-13T02:00:32.023Z,52.80
2018-08-13T02:02:59.719Z,52.80
2018-08-13T02:05:27.312Z,53.00
2018-08-13T02:07:55.424Z,53.10
2018-08-13T02:10:23.055Z,53.20
2018-08-13T02:12:50.692Z,53.20
2018-08-13T02:15:18.299Z,53.40
2018-08-13T02:17:45.889Z,53.40
2018-08-13T02:20:13.622Z,53.60
2018-08-13T02:22:41.203Z,53.60
2018-08-13T02:25:08.930Z,54.00
2018-08-13T02:27:36.625Z,54.00
2018-08-13T02:30:07.104Z,54.00
2018-08-13T02:32:34.882Z,53.80
2018-08-13T02:35:02.612Z,53.70
2018-08-13T02:37:30.523Z,54.60
2018-08-13T02:39:58.148Z,54.10
2018-08-13T02:42:26.078Z,54.10
2018-08-13T02:44:53.724Z,53.90
2018-08-13T02:47:21.331Z,53.90
2018-08-13T02:49:48.980Z,53.90
2018-08-13T02:52:16.811Z,53.70
2018-08-13T02:54:44.359Z,54.60
2018-08-13T02:57:12.128Z,55.60
2018-08-13T02:59:39.732Z,55.30
2018-08-13T03:02:07.401Z,54.90
2018-08-13T03:04:35.109Z,55.30
2018-08-13T03:07:02.696Z,55.30
2018-08-13T03:09:30.559Z,54.80
2018-08-13T03:11:58.159Z,54.60
2018-08-13T03:14:25.793Z,54.50
2018-08-13T03:16:53.464Z,54.80
2018-08-13T03:19:21.031Z,54.60
2018-08-13T03:21:48.680Z,54.80
2018-08-13T03:24:16.499Z,54.80
2018-08-13T03:26:44.323Z,55.10
2018-08-13T03:29:11.924Z,54.50
2018-08-13T03:31:39.518Z,54.60
2018-08-13T03:34:07.160Z,54.60
2018-08-13T03:36:35.320Z,54.70
2018-08-13T03:39:05.033Z,54.90
2018-08-13T03:41:32.611Z,54.90
2018-08-13T03:44:00.197Z,55.10
2018-08-13T03:46:27.734Z,55.30
2018-08-13T03:48:55.261Z,55.40
2018-08-13T03:51:22.835Z,55.30
2018-08-13T03:53:50.555Z,55.30
2018-08-13T03:56:18.089Z,55.40
2018-08-13T03:58:45.705Z,55.60
2018-08-13T04:01:13.255Z,55.50
2018-08-13T04:03:40.848Z,55.90
2018-08-13T04:06:08.502Z,56.00
2018-08-13T04:08:36.047Z,55.90
2018-08-13T04:13:28.954Z,55.90
2018-08-13T04:15:56.537Z,56.90
2018-08-13T04:18:24.076Z,56.70
2018-08-13T04:20:51.885Z,57.10
2018-08-13T04:23:19.625Z,56.70
2018-08-13T04:25:47.140Z,56.80
2018-08-13T04:28:14.647Z,56.90
2018-08-13T04:30:43.689Z,56.70
2018-08-13T04:33:11.214Z,56.50
2018-08-13T04:35:38.776Z,56.60
2018-08-13T04:38:06.323Z,56.50
2018-08-13T04:40:33.869Z,56.50
2018-08-13T04:43:01.431Z,56.60
2018-08-13T04:45:29.029Z,56.50
2018-08-13T04:47:56.571Z,56.70
2018-08-13T04:50:24.188Z,56.40
2018-08-13T04:52:51.937Z,56.10
2018-08-13T04:55:20.249Z,56.10
2018-08-13T04:57:47.844Z,56.50
2018-08-13T05:00:15.445Z,56.70
2018-08-13T05:02:43.129Z,56.50
2018-08-13T05:05:11.299Z,57.10
2018-08-13T05:07:39.388Z,57.10
2018-08-13T05:10:08.047Z,56.90
2018-08-13T05:12:35.589Z,56.90
2018-08-13T05:15:04.297Z,56.80
2018-08-13T05:17:31.824Z,56.40
2018-08-13T05:19:59.379Z,56.30
2018-08-13T05:22:27.543Z,56.30
2018-08-13T05:24:55.100Z,56.60
2018-08-13T05:27:23.119Z,57.10
2018-08-13T05:29:50.716Z,56.80
2018-08-13T05:32:18.280Z,57.00
2018-08-13T05:34:45.932Z,56.90
2018-08-13T05:37:13.556Z,56.70
2018-08-13T05:39:41.128Z,56.70
2018-08-13T05:42:09.038Z,56.80
2018-08-13T05:44:36.768Z,56.90
2018-08-13T05:47:04.610Z,57.10
2018-08-13T05:49:32.283Z,57.60
2018-08-13T05:51:59.887Z,58.10
2018-08-13T05:54:34.208Z,57.80
2018-08-13T05:57:01.935Z,57.80
2018-08-13T05:59:29.539Z,58.40
2018-08-13T06:01:57.135Z,58.40
2018-08-13T06:04:24.769Z,58.40
2018-08-13T06:06:52.332Z,58.20
2018-08-13T06:09:19.922Z,57.80
2018-08-13T06:11:47.545Z,57.90
2018-08-13T06:14:15.159Z,58.00
2018-08-13T06:16:42.739Z,57.90
2018-08-13T06:19:10.319Z,57.40
2018-08-13T06:21:37.912Z,57.10
2018-08-13T06:24:05.511Z,57.20
2018-08-13T06:26:33.152Z,57.00
2018-08-13T06:29:07.349Z,57.40
2018-08-13T06:31:35.052Z,57.20
2018-08-13T06:34:02.691Z,56.70
2018-08-13T06:36:30.318Z,57.10
2018-08-13T06:38:58.097Z,57.20
2018-08-13T06:41:25.722Z,56.60
2018-08-13T06:43:53.297Z,56.70
2018-08-13T06:46:20.833Z,55.80
2018-08-13T06:48:48.351Z,55.40
2018-08-13T06:51:15.977Z,55.40
2018-08-13T06:53:43.553Z,55.10
2018-08-13T06:56:17.965Z,54.10
2018-08-13T06:58:45.529Z,54.00
2018-08-13T07:01:13.239Z,53.50
2018-08-13T07:03:40.833Z,53.00
2018-08-13T07:06:08.518Z,53.00
2018-08-13T07:08:36.098Z,53.00
2018-08-13T07:11:03.729Z,53.10
2018-08-13T07:13:31.282Z,53.30
2018-08-13T07:15:58.923Z,53.50
2018-08-13T07:18:26.510Z,53.40
2018-08-13T07:20:54.092Z,53.10
2018-08-13T07:23:21.688Z,52.90
2018-08-13T07:25:49.231Z,52.70
2018-08-13T07:28:16.865Z,52.50
2018-08-13T07:30:44.407Z,52.00
2018-08-13T07:33:12.251Z,52.40
2018-08-13T07:35:39.849Z,52.40
2018-08-13T07:38:07.708Z,52.10
2018-08-13T07:40:35.323Z,52.20
2018-08-13T07:43:03.264Z,52.30
2018-08-13T07:45:30.961Z,52.30
2018-08-13T07:47:58.491Z,52.30
2018-08-13T07:50:26.076Z,52.50
2018-08-13T07:52:53.745Z,52.40
2018-08-13T07:55:21.439Z,52.40
2018-08-13T07:57:49.084Z,52.90
2018-08-13T08:00:18.146Z,52.30
2018-08-13T08:02:46.218Z,52.50
2018-08-13T08:05:14.672Z,52.40
2018-08-13T08:07:42.589Z,52.90
2018-08-13T08:10:12.153Z,52.80
2018-08-13T08:12:40.148Z,53.30
2018-08-13T08:15:10.928Z,53.80
2018-08-13T08:17:38.592Z,53.80
2018-08-13T08:20:06.229Z,53.60
2018-08-13T08:22:33.784Z,53.80
2018-08-13T08:25:01.428Z,54.30
2018-08-13T08:27:29.041Z,54.40
2018-08-13T08:29:56.637Z,55.30
2018-08-13T08:32:24.364Z,57.30
2018-08-13T08:34:51.982Z,57.70
2018-08-13T08:37:19.555Z,58.80
2018-08-13T08:39:47.113Z,60.30
2018-08-13T08:42:14.675Z,60.20
2018-08-13T08:44:42.381Z,60.50
2018-08-13T08:47:10.195Z,60.90
2018-08-13T08:49:38.055Z,61.40
2018-08-13T08:52:05.890Z,61.30
2018-08-13T08:54:33.486Z,59.50
2018-08-13T08:57:01.309Z,58.60
2018-08-13T08:59:29.049Z,57.90
2018-08-13T09:01:56.647Z,59.30
2018-08-13T09:04:24.305Z,58.70
2018-08-13T09:06:51.885Z,59.10
2018-08-13T09:09:19.484Z,59.60
2018-08-13T09:11:47.084Z,59.00
2018-08-13T09:14:14.744Z,58.50
2018-08-13T09:16:44.622Z,58.50
2018-08-13T09:19:23.630Z,58.00
2018-08-13T09:21:52.780Z,58.00
2018-08-13T09:24:31.784Z,57.70
2018-08-13T09:27:10.747Z,57.70
2018-08-13T09:29:49.789Z,57.80
2018-08-13T09:32:32.996Z,58.00
2018-08-13T09:35:33.163Z,58.00
2018-08-13T09:38:00.791Z,58.60
2018-08-13T09:40:29.703Z,57.70
2018-08-13T09:42:57.478Z,58.20
2018-08-13T09:45:25.345Z,57.40
2018-08-13T09:47:52.956Z,57.50
2018-08-13T09:50:20.968Z,56.90
2018-08-13T09:52:49.191Z,57.90
2018-08-13T09:55:17.321Z,57.70
2018-08-13T09:57:45.988Z,57.70
2018-08-13T10:00:20.390Z,57.70
2018-08-13T10:02:48.645Z,57.30
2018-08-13T10:05:16.378Z,57.50
2018-08-13T10:07:44.180Z,57.60
2018-08-13T10:10:12.507Z,57.60
2018-08-13T10:12:41.036Z,57.70
2018-08-13T10:15:09.371Z,57.60
2018-08-13T10:17:37.312Z,58.30
2018-08-13T10:20:06.070Z,57.80
2018-08-13T10:22:33.749Z,58.10
2018-08-13T10:25:01.756Z,58.40
2018-08-13T10:27:29.363Z,58.10
2018-08-13T10:29:56.972Z,58.00
2018-08-13T10:32:24.510Z,58.40
2018-08-13T10:34:52.023Z,57.90
2018-08-13T10:37:19.603Z,58.30
2018-08-13T10:39:47.132Z,58.60
2018-08-13T10:42:14.683Z,57.20
2018-08-13T10:44:42.290Z,57.20
2018-08-13T10:47:09.858Z,57.40
2018-08-13T10:49:37.472Z,56.90
2018-08-13T10:52:05.091Z,57.20
2018-08-13T10:54:32.693Z,56.70
2018-08-13T10:57:00.313Z,56.60
2018-08-13T10:59:28.100Z,58.50
2018-08-13T11:01:55.750Z,58.00
2018-08-13T11:04:23.573Z,58.30
2018-08-13T11:06:51.146Z,57.80
2018-08-13T11:09:18.711Z,58.30
2018-08-13T11:11:46.310Z,58.00
2018-08-13T11:14:13.847Z,57.70
2018-08-13T11:16:41.671Z,57.80
2018-08-13T11:19:09.519Z,59.00
2018-08-13T11:21:37.174Z,58.70
2018-08-13T11:24:04.821Z,59.30
2018-08-13T11:26:32.466Z,59.50
2018-08-13T11:29:00.335Z,59.30
2018-08-13T11:31:27.912Z,59.30
2018-08-13T11:33:55.558Z,59.50
2018-08-13T11:36:23.121Z,60.30
2018-08-13T11:38:50.763Z,60.00
2018-08-13T11:41:18.435Z,60.00
2018-08-13T11:43:46.054Z,59.90
2018-08-13T11:46:13.702Z,59.90
2018-08-13T11:48:41.315Z,59.50
2018-08-13T11:51:09.072Z,59.60
2018-08-13T11:53:36.648Z,58.60
2018-08-13T11:56:04.572Z,59.00
2018-08-13T11:58:32.174Z,58.20
2018-08-13T12:00:59.720Z,58.30
2018-08-13T12:03:27.334Z,58.90
2018-08-13T12:05:54.924Z,58.90
2018-08-13T12:08:22.834Z,58.80
2018-08-13T12:10:50.364Z,59.80
2018-08-13T12:13:18.080Z,59.50
2018-08-13T12:15:45.642Z,59.80
2018-08-13T12:18:13.272Z,59.00
2018-08-13T12:20:40.831Z,59.30
2018-08-13T12:23:08.415Z,59.10
2018-08-13T12:25:35.991Z,58.80
2018-08-13T12:28:03.580Z,58.70
2018-08-13T12:30:31.202Z,58.50
2018-08-13T12:32:58.788Z,58.90
2018-08-13T12:35:26.359Z,59.70
2018-08-13T12:37:53.984Z,59.50
2018-08-13T12:40:21.555Z,59.70
2018-08-13T12:42:49.237Z,59.20
2018-08-13T12:45:17.579Z,59.70
2018-08-13T12:47:45.248Z,60.90
2018-08-13T12:50:15.001Z,60.90
2018-08-13T12:52:43.811Z,59.60
2018-08-13T12:55:11.736Z,59.80
2018-08-13T12:57:39.504Z,60.20
2018-08-13T13:00:10.747Z,58.10
2018-08-13T13:02:38.775Z,59.20
2018-08-13T13:05:07.099Z,59.40
2018-08-13T13:07:34.987Z,58.90
2018-08-13T13:10:02.828Z,59.80
2018-08-13T13:12:30.374Z,58.40
2018-08-13T13:14:57.992Z,58.60
2018-08-13T13:17:25.632Z,57.70
2018-08-13T13:19:53.495Z,57.30
2018-08-13T13:22:21.001Z,57.70
2018-08-13T13:24:48.579Z,57.50
2018-08-13T13:27:16.101Z,57.50
2018-08-13T13:29:43.667Z,56.50
2018-08-13T13:32:11.440Z,56.30
2018-08-13T13:34:39.094Z,56.30
2018-08-13T13:37:06.730Z,55.70
2018-08-13T13:39:34.377Z,55.70
2018-08-13T13:42:02.172Z,55.00
2018-08-13T13:44:29.776Z,54.50
2018-08-13T13:46:57.299Z,53.80
2018-08-13T13:49:24.851Z,54.10
2018-08-13T13:51:52.556Z,53.60
2018-08-13T13:54:20.180Z,53.40
2018-08-13T13:56:48.178Z,53.70
2018-08-13T13:59:15.775Z,53.40
2018-08-13T14:01:43.291Z,53.50
2018-08-13T14:04:10.892Z,53.70
2018-08-13T14:06:38.552Z,53.80
2018-08-13T14:09:08.418Z,53.70
2018-08-13T14:11:37.940Z,53.80
2018-08-13T14:14:06.195Z,53.50
2018-08-13T14:16:33.800Z,53.60
2018-08-13T14:19:01.449Z,53.90
2018-08-13T14:21:29.226Z,54.10
2018-08-13T14:23:57.297Z,53.70
2018-08-13T14:26:24.872Z,53.80
2018-08-13T14:28:52.476Z,53.70
2018-08-13T14:31:20.104Z,53.60
2018-08-13T14:33:47.797Z,53.30
2018-08-13T14:36:15.423Z,53.50
2018-08-13T14:38:43.018Z,53.10
2018-08-13T14:41:10.737Z,53.00
2018-08-13T14:43:38.375Z,53.50
2018-08-13T14:46:06.933Z,52.60
2018-08-13T14:48:34.494Z,52.70
2018-08-13T14:51:02.548Z,52.60
2018-08-13T14:53:30.087Z,52.80
2018-08-13T14:55:57.738Z,53.60
2018-08-13T14:58:25.468Z,53.80
2018-08-13T15:00:53.112Z,54.20
2018-08-13T15:03:20.716Z,54.50
2018-08-13T15:05:48.348Z,54.80
2018-08-13T15:08:15.965Z,55.10
2018-08-13T15:10:50.263Z,54.90
2018-08-13T15:13:17.927Z,55.50
2018-08-13T15:15:45.421Z,54.80
2018-08-13T15:18:13.191Z,54.90
2018-08-13T15:20:41.023Z,55.50
2018-08-13T15:23:09.029Z,55.50
2018-08-13T15:25:37.178Z,55.40
2018-08-13T15:28:04.990Z,55.10
2018-08-13T15:30:32.461Z,55.40
2018-08-13T15:33:00.038Z,55.40
2018-08-13T15:35:27.599Z,55.10
2018-08-13T15:37:55.123Z,55.30
2018-08-13T15:40:22.712Z,55.10
2018-08-13T15:42:50.277Z,53.80
2018-08-13T15:45:22.363Z,54.10
2018-08-13T15:47:50.081Z,53.80
2018-08-13T15:50:18.970Z,53.50
2018-08-13T15:52:46.864Z,53.90
2018-08-13T15:55:14.891Z,54.40
2018-08-13T15:57:43.212Z,54.90
2018-08-13T16:00:15.847Z,55.10
2018-08-13T16:02:43.411Z,55.30
2018-08-13T16:05:11.436Z,55.70
2018-08-13T16:07:39.062Z,56.50
2018-08-13T16:10:08.438Z,56.70
2018-08-13T16:12:36.096Z,58.50
2018-08-13T16:15:04.367Z,59.60
2018-08-13T16:17:32.274Z,60.30
2018-08-13T16:19:59.867Z,61.00
2018-08-13T16:22:27.472Z,61.70
2018-08-13T16:24:55.071Z,62.00
2018-08-13T16:27:22.622Z,64.10
2018-08-13T16:29:50.296Z,63.90
2018-08-13T16:32:17.840Z,64.50
2018-08-13T16:34:45.388Z,65.20
2018-08-13T16:37:13.051Z,64.20
2018-08-13T16:39:40.647Z,63.60
2018-08-13T16:42:08.323Z,64.00
2018-08-13T16:44:35.864Z,64.30
2018-08-13T16:47:03.536Z,64.50
2018-08-13T16:49:31.115Z,65.30
2018-08-13T16:51:58.760Z,64.00
2018-08-13T16:54:26.337Z,64.70
2018-08-13T16:56:53.959Z,65.10
2018-08-13T16:59:21.535Z,64.90
2018-08-13T17:01:49.335Z,64.90
2018-08-13T17:04:16.984Z,65.50
2018-08-13T17:06:44.627Z,65.30
2018-08-13T17:09:12.252Z,65.00
2018-08-13T17:11:39.952Z,65.20
2018-08-13T17:14:09.910Z,65.40
2018-08-13T17:16:39.385Z,65.40
2018-08-13T17:19:07.012Z,64.70
2018-08-13T17:21:34.765Z,64.20
2018-08-13T17:24:02.416Z,65.50
2018-08-13T17:26:30.079Z,64.80
2018-08-13T17:28:57.683Z,64.60
2018-08-13T17:31:25.832Z,65.20
2018-08-13T17:33:53.759Z,64.50
2018-08-13T17:36:22.057Z,65.00
2018-08-13T17:38:49.750Z,64.00
2018-08-13T17:41:17.566Z,63.70
2018-08-13T17:43:45.294Z,64.50
2018-08-13T17:46:13.009Z,64.80
2018-08-13T17:48:40.688Z,64.20
2018-08-13T17:51:08.497Z,64.10
2018-08-13T17:53:36.157Z,65.00
2018-08-13T17:56:03.955Z,64.70
2018-08-13T17:58:31.596Z,64.70
2018-08-13T18:00:59.312Z,64.90
2018-08-13T18:03:27.266Z,64.90
2018-08-13T18:05:55.000Z,65.40
2018-08-13T18:08:22.737Z,64.70
2018-08-13T18:10:50.444Z,64.90
2018-08-13T18:13:18.169Z,65.00
2018-08-13T18:15:45.940Z,65.20
2018-08-13T18:18:13.700Z,65.30
2018-08-13T18:20:41.375Z,65.80
2018-08-13T18:23:09.078Z,66.30
2018-08-13T18:25:37.048Z,65.50
2018-08-13T18:28:04.823Z,65.10
2018-08-13T18:30:32.460Z,65.70
2018-08-13T18:33:00.170Z,66.40
2018-08-13T18:35:27.844Z,65.40
2018-08-13T18:37:55.523Z,65.40
2018-08-13T18:40:26.927Z,66.10
2018-08-13T18:42:54.688Z,66.50
2018-08-13T18:45:22.321Z,66.60
2018-08-13T18:47:50.502Z,65.40
2018-08-13T18:50:19.430Z,65.00
2018-08-13T18:52:47.249Z,66.10
2018-08-13T18:55:17.039Z,66.00
2018-08-13T18:57:45.016Z,64.80
2018-08-13T19:00:18.044Z,64.70
2018-08-13T19:02:45.756Z,65.70
2018-08-13T19:05:14.565Z,66.30
2018-08-13T19:07:43.110Z,66.70
2018-08-13T19:10:12.560Z,67.70
2018-08-13T19:12:40.403Z,68.20
2018-08-13T19:15:10.324Z,66.20
2018-08-13T19:17:38.076Z,65.70
2018-08-13T19:20:07.080Z,66.30
2018-08-13T19:22:34.835Z,66.40
2018-08-13T19:25:02.575Z,67.10
2018-08-13T19:27:30.435Z,68.40
2018-08-13T19:29:58.097Z,67.70
2018-08-13T19:32:26.483Z,68.40
2018-08-13T19:34:54.504Z,67.70
2018-08-13T19:37:22.548Z,67.50
2018-08-13T19:39:50.295Z,67.30
2018-08-13T19:42:18.025Z,68.10
2018-08-13T19:44:45.774Z,68.50
2018-08-13T19:47:13.505Z,68.00
2018-08-13T19:49:41.267Z,67.90
2018-08-13T19:52:08.966Z,67.80
2018-08-13T19:54:37.467Z,67.40
2018-08-13T19:57:05.307Z,68.10
2018-08-13T19:59:32.996Z,67.40
2018-08-13T20:02:00.981Z,67.30
2018-08-13T20:04:28.748Z,67.60
2018-08-13T20:06:56.426Z,67.40
2018-08-13T20:09:24.072Z,67.80
2018-08-13T20:11:52.680Z,67.70
2018-08-13T20:14:20.939Z,68.00
2018-08-13T20:16:48.825Z,68.50
2018-08-13T20:19:16.901Z,69.10
2018-08-13T20:21:44.572Z,68.10
2018-08-13T20:24:12.324Z,67.40
2018-08-13T20:26:40.322Z,67.10
2018-08-13T20:29:08.017Z,67.40
2018-08-13T20:31:35.623Z,67.80
2018-08-13T20:34:03.348Z,66.50
2018-08-13T20:36:30.960Z,66.50
2018-08-13T20:38:58.585Z,66.70
2018-08-13T20:41:26.318Z,66.60
2018-08-13T20:43:54.040Z,65.60
2018-08-13T20:46:21.835Z,65.50
2018-08-13T20:48:49.561Z,65.70
2018-08-13T20:51:17.288Z,66.60
2018-08-13T20:53:45.085Z,66.40
2018-08-13T20:56:12.805Z,66.90
2018-08-13T20:58:40.488Z,68.40
2018-08-13T21:01:08.221Z,69.10
2018-08-13T21:03:35.979Z,68.00
2018-08-13T21:06:03.688Z,67.70
2018-08-13T21:08:31.470Z,67.50
2018-08-13T21:10:59.189Z,67.50
2018-08-13T21:13:26.969Z,67.60
2018-08-13T21:15:55.573Z,67.70
2018-08-13T21:18:24.025Z,68.10
2018-08-13T21:20:51.709Z,68.30
2018-08-13T21:23:19.399Z,68.40
2018-08-13T21:25:47.089Z,68.70
2018-08-13T21:28:15.041Z,68.40
2018-08-13T21:30:43.680Z,68.60
2018-08-13T21:33:11.320Z,68.20
2018-08-13T21:35:39.053Z,68.10
2018-08-13T21:38:06.732Z,68.20
2018-08-13T21:40:34.489Z,68.70
2018-08-13T21:43:02.167Z,68.20
2018-08-13T21:45:29.848Z,68.20
2018-08-13T21:47:57.472Z,68.30
2018-08-13T21:50:25.236Z,68.50
2018-08-13T21:52:52.864Z,68.10
2018-08-13T21:55:20.913Z,68.20
2018-08-13T21:57:48.648Z,68.10
2018-08-13T22:00:30.667Z,68.10
2018-08-13T22:02:59.914Z,68.50
2018-08-13T22:05:27.711Z,69.80
2018-08-13T22:07:55.423Z,70.20
2018-08-13T22:10:23.165Z,69.70
2018-08-13T22:12:50.880Z,69.10
2018-08-13T22:15:23.929Z,69.70
2018-08-13T22:17:51.675Z,69.60
2018-08-13T22:20:19.493Z,69.30
2018-08-13T22:22:47.803Z,68.70
2018-08-13T22:25:20.716Z,68.40
2018-08-13T22:27:48.476Z,68.20
2018-08-13T22:30:16.249Z,68.30
2018-08-13T22:32:43.997Z,68.20
2018-08-13T22:35:11.752Z,67.80
2018-08-13T22:37:41.015Z,67.40
2018-08-13T22:40:16.248Z,67.00
2018-08-13T22:42:44.707Z,67.50
2018-08-13T22:45:14.435Z,67.50
2018-08-13T22:47:42.386Z,69.00
2018-08-13T22:50:10.699Z,68.50
2018-08-13T22:52:38.388Z,68.70
2018-08-13T22:55:08.019Z,69.00
2018-08-13T22:57:35.794Z,69.10
2018-08-13T23:00:04.564Z,68.60
2018-08-13T23:02:32.169Z,68.80
2018-08-13T23:04:59.947Z,68.30
2018-08-13T23:07:27.591Z,67.70
2018-08-13T23:09:55.289Z,67.90
2018-08-13T23:12:23.044Z,68.40
2018-08-13T23:14:50.672Z,68.70
2018-08-13T23:17:18.342Z,68.60
2018-08-13T23:19:46.275Z,68.70
2018-08-13T23:22:58.399Z,69.70
2018-08-13T23:25:26.664Z,69.60
2018-08-13T23:27:55.860Z,70.00
2018-08-13T23:30:23.596Z,69.70
2018-08-13T23:32:52.383Z,70.00
2018-08-13T23:35:21.040Z,70.00
2018-08-13T23:37:49.269Z,69.40
2018-08-13T23:40:17.643Z,69.00
2018-08-13T23:42:45.551Z,68.70
2018-08-13T23:45:16.445Z,68.10
2018-08-13T23:47:44.381Z,67.90
2018-08-13T23:50:13.824Z,67.80
2018-08-13T23:52:41.579Z,67.50
2018-08-13T23:55:15.026Z,67.60
2018-08-13T23:57:42.751Z,68.10
